Nearby METAR Reports

 

KSJC - San Jose, California, USA
Distance from station: NE 14km
Actualización: 20/05/2022 17:53
Parcialmente nuboso
Parcialmente nuboso
 Viento del NNO
Viento: NNO 24 km/h
Temperatura: 17°C
Rocío: 5°C
Humedad: 45%
Barómetro: 1010.5 hPa
Clouds: Parcialmente nuboso
Visibilidad: 16 km
Cloud details: Few Clouds 2438 m
Parcialmente nuboso 3353 m
Parcialmente nuboso 4877 m
2022/05/20 15:53 KSJC 201553Z 33013KT 10SM FEW080 SCT110 SCT160 17/05 A2984 RMK AO2 SLP105 T01670050
KNUQ - Moffett Nas/Mtn, California, USA
Distance from station: N 14km
Actualización: 20/05/2022 18:35
Despejado
Despejado
 Viento del NO
Viento: NO 17 km/h
Temperatura: 17°C
Rocío: 1°C
Humedad: 34%
Barómetro: 1010.5 hPa
Clouds: Despejado
Visibilidad: 16 km
2022/05/20 16:35 KNUQ 201635Z AUTO 31009KT 10SM CLR 17/01 A2984 RMK AO2
 
KPAO - Palo Alto, California, USA
Distance from station: NNO 23km
Actualización: 20/05/2022 17:47
Despejado
Despejado
 Viento del O
Viento: O 19 km/h
Temperatura: 16°C
Rocío: 3°C
Humedad: 42%
Barómetro: 1011.2 hPa
Clouds: Despejado
Visibilidad: 16 km
2022/05/20 15:47 KPAO 201547Z 28010KT 10SM SKC 16/03 A2986 RMK CRANE 3.4NM SE PAO GPS MDA 580MSL
KRHV - San Jose/Reid, California, USA
Distance from station: ENE 19km
Actualización: 20/05/2022 17:50
Few Clouds
Few Clouds
 Viento del NO
Viento: NO 17 km/h
Temperatura: 16°C
Rocío: 5°C
Humedad: 48%
Barómetro: 1010.8 hPa
Clouds: Few Clouds
Visibilidad: 16 km
Cloud details: Few Clouds 2438 m
2022/05/20 15:50 KRHV 201550Z 31009KT 10SM FEW080 16/05 A2985
 
KOAK - Oakland, California, USA
Distance from station: NNO 50km
Actualización: 20/05/2022 17:53
Parcialmente nuboso
Parcialmente nuboso
 Viento del NO
Viento: NO 15 km/h
Temperatura: 17°C
Rocío: 2°C
Humedad: 37%
Barómetro: 1010.8 hPa
Clouds: Parcialmente nuboso
Visibilidad: 16 km
Cloud details: Few Clouds 1829 m
Parcialmente nuboso 6096 m
2022/05/20 15:53 KOAK 201553Z 32008KT 10SM FEW060 SCT200 17/02 A2985 RMK AO2 SLP108 T01670022
KSQL - San Carlos Airpo, California, USA
Distance from station: NO 34km
Actualización: 20/05/2022 17:52
Few Clouds
Few Clouds
 Viento del NO
Viento: NO 9 km/h
Temperatura: 17°C
Rocío: 0°C
Humedad: 32%
Barómetro: 1011.5 hPa
Clouds: Few Clouds
Visibilidad: 16 km
Cloud details: Few Clouds 6096 m
2022/05/20 15:52 KSQL 201552Z 31005KT 10SM FEW200 17/00 A2987
 
KSFO - San Francisco, California, USA
Distance from station: NO 49km
Actualización: 20/05/2022 17:56
Few Clouds
Few Clouds
 Viento del ONO
Viento: ONO 17 km/h
Temperatura: 16°C
Rocío: 4°C
Humedad: 45%
Barómetro: 1011.2 hPa
Clouds: Few Clouds
Visibilidad: 16 km
Cloud details: Few Clouds 6096 m
2022/05/20 15:56 KSFO 201556Z 30009KT 10SM FEW200 16/04 A2986 RMK AO2 SLP110 T01560039
KE16 - San Martin, California, USA
Distance from station: ESE 43km
Actualización: 20/05/2022 18:35
Despejado
Despejado
 Viento del NO
Viento: NO 19 km/h
Temperatura: 16°C
Rocío: 3°C
Humedad: 42%
Barómetro: 1010.8 hPa
Clouds: Despejado
Visibilidad: 16 km
2022/05/20 16:35 KE16 201635Z AUTO 32010KT 10SM CLR 16/03 A2985 RMK AO2
 
KWVI - Watsonville, California, USA
Distance from station: SSE 44km
Actualización: 20/05/2022 17:53
Despejado
Despejado
 Viento del ESE
Viento: ESE 7 km/h
Temperatura: 13°C
Rocío: 8°C
Humedad: 72%
Barómetro: 1010.8 hPa
Clouds: Despejado
Visibilidad: 13 km
2022/05/20 15:53 KWVI 201553Z AUTO 12004KT 8SM CLR 13/08 A2985 RMK AO2 SLP108 T01330078
KHAF - Half Moon Bay, California, USA
Distance from station: ONO 50km
Actualización: 20/05/2022 18:35
Haze, Despejado
Haze, Despejado
 Viento del NNO
Viento: NNO 20 km/h
Temperatura: 14°C
Rocío: 7°C
Humedad: 63%
Barómetro: 1011.2 hPa
Resumen: Haze
Clouds: Despejado
Visibilidad: 10 km
2022/05/20 16:35 KHAF 201635Z AUTO 33011KT 6SM HZ CLR 14/07 A2986 RMK AO2
 
KHWD - Hayward, California, USA
Distance from station: N 44km
Actualización: 20/05/2022 17:54
Despejado
Despejado
 Viento del varies
Viento: varies 6 km/h
Temperatura: 17°C
Rocío: 2°C
Humedad: 37%
Barómetro: 1010.5 hPa
Clouds: Despejado
Visibilidad: 16 km
2022/05/20 15:54 KHWD 201554Z VRB03KT 10SM CLR 17/02 A2984 RMK AO2 SLP115 T01670017
KLVK - Livermore, California, USA
Distance from station: NNE 51km
Actualización: 20/05/2022 17:53
Despejado
Despejado
 Viento del SO
Viento: SO 7 km/h
Temperatura: 17°C
Rocío: 0°C
Humedad: 32%
Barómetro: 1010.2 hPa
Clouds: Despejado
Visibilidad: 16 km
2022/05/20 15:53 KLVK 201553Z 23004KT 10SM CLR 17/00 A2983 RMK AO2 SLP099 T01670000